Stavanger, Norway

6:13 PM CET on December 04, 2016 (GMT +0100)
Sola | | Change Station

Elev 30 ft 58.88 °N, 5.64 °E | Updated 23 minutes ago

Mostly Cloudy
Mostly Cloudy
45 °F
Feels Like 40 °F
N
9
Wind Variable Wind from WNW

Today
High -- | Low -- °F
--% Chance of Precip.
Yesterday
High -- | Low -- °F
Precip. -- in
Pressure 30.27 in
Visibility 6.2 miles
Clouds Few 2500 ft
Mostly Cloudy 3900 ft
Windchill 40 °F
Dew Point 43 °F
Humidity 93%
Rainfall 0.00 in
Snow Depth Not available.
9:09 AM 3:45 PM
Waxing Crescent, 24% visible
METAR ENZV 041650Z 30008KT 9999 FEW025 BKN039 07/06 Q1025 NOSIG
Pressure 30.27 in
Visibility 6.2 miles
Clouds Few 2500 ft
Mostly Cloudy 3900 ft
Windchill 40 °F
Dew Point 43 °F
Humidity 93%
Rainfall 0.00 in
Snow Depth Not available.
9:09 AM 3:45 PM
Waxing Crescent, 24% visible
METAR ENZV 041650Z 30008KT 9999 FEW025 BKN039 07/06 Q1025 NOSIG

10-Day Weather Forecast

×

Almanac

Astronomy

Dec. 04, 2016 Rise Set
Actual Time
Civil Twilight
Nautical Twilight
Astronomical Twilight
Moon
Length of Visible Light
Length of Day
Tomorrow will be .
, % of the Moon is Illuminated

Today's Extremes

Country Highs Country Lows

Community

WunderPhotos

Upload Photos

1,955,631 photos uploaded!

WunderBlog® & News

Nearby

Air Quality

  Air Quality AQ Index Pollutant
Not available.

Snow Depth

Station Depth Elevation

Earthquake Activity

City Distance Mag. Time & Date
Minimum magnitude displayed is 2.5.

Coastal Water Temperatures

Place Temperature

Stations

Nearby Weather Stations

Station Location Temp. Windchill Dew Point Humidity Wind Precip. Elev Updated Type